sensor_id;sensor_type;location;lat;lon;timestamp;P1;durP1;ratioP1;P2;durP2;ratioP2
37131;SDS011;23035;50.032;21.978;2024-02-21T00:03:01;13.02;;;6.63;;
37131;SDS011;23035;50.032;21.978;2024-02-21T00:08:07;18.05;;;7.50;;
37131;SDS011;23035;50.032;21.978;2024-02-21T00:13:11;15.55;;;7.30;;
37131;SDS011;23035;50.032;21.978;2024-02-21T00:18:17;16.38;;;7.80;;
37131;SDS011;23035;50.032;21.978;2024-02-21T00:23:22;19.48;;;6.93;;
37131;SDS011;23035;50.032;21.978;2024-02-21T00:28:26;16.50;;;7.38;;
37131;SDS011;23035;50.032;21.978;2024-02-21T00:33:32;14.00;;;6.68;;
37131;SDS011;23035;50.032;21.978;2024-02-21T00:38:36;10.60;;;5.38;;
37131;SDS011;23035;50.032;21.978;2024-02-21T00:43:40;14.68;;;6.30;;
37131;SDS011;23035;50.032;21.978;2024-02-21T00:48:46;10.93;;;5.63;;
37131;SDS011;23035;50.032;21.978;2024-02-21T00:53:51;10.05;;;5.68;;
37131;SDS011;23035;50.032;21.978;2024-02-21T00:58:55;12.45;;;6.25;;
37131;SDS011;23035;50.032;21.978;2024-02-21T01:04:00;12.23;;;7.22;;
37131;SDS011;23035;50.032;21.978;2024-02-21T01:09:04;11.15;;;6.50;;
37131;SDS011;23035;50.032;21.978;2024-02-21T01:14:08;14.10;;;7.60;;
37131;SDS011;23035;50.032;21.978;2024-02-21T01:19:14;12.90;;;6.72;;
37131;SDS011;23035;50.032;21.978;2024-02-21T01:29:23;13.07;;;7.13;;
37131;SDS011;23035;50.032;21.978;2024-02-21T01:34:28;12.27;;;7.22;;
37131;SDS011;23035;50.032;21.978;2024-02-21T01:39:34;15.57;;;7.00;;
37131;SDS011;23035;50.032;21.978;2024-02-21T01:44:38;13.50;;;6.78;;
37131;SDS011;23035;50.032;21.978;2024-02-21T01:49:45;14.30;;;7.07;;
37131;SDS011;23035;50.032;21.978;2024-02-21T01:54:49;11.63;;;6.50;;
37131;SDS011;23035;50.032;21.978;2024-02-21T01:59:53;11.05;;;5.97;;
37131;SDS011;23035;50.032;21.978;2024-02-21T02:04:59;11.95;;;6.07;;
37131;SDS011;23035;50.032;21.978;2024-02-21T02:10:05;10.00;;;5.35;;
37131;SDS011;23035;50.032;21.978;2024-02-21T02:15:09;9.50;;;5.10;;
37131;SDS011;23035;50.032;21.978;2024-02-21T02:20:15;9.48;;;4.75;;
37131;SDS011;23035;50.032;21.978;2024-02-21T02:30:24;11.20;;;4.75;;
37131;SDS011;23035;50.032;21.978;2024-02-21T02:35:28;10.73;;;4.63;;
37131;SDS011;23035;50.032;21.978;2024-02-21T02:40:34;9.40;;;4.70;;
37131;SDS011;23035;50.032;21.978;2024-02-21T02:45:39;9.35;;;4.55;;
37131;SDS011;23035;50.032;21.978;2024-02-21T02:50:42;10.27;;;4.45;;
37131;SDS011;23035;50.032;21.978;2024-02-21T02:55:49;11.52;;;4.10;;
37131;SDS011;23035;50.032;21.978;2024-02-21T03:05:57;7.57;;;3.85;;
37131;SDS011;23035;50.032;21.978;2024-02-21T03:11:03;7.63;;;4.45;;
37131;SDS011;23035;50.032;21.978;2024-02-21T03:16:07;12.60;;;4.00;;
37131;SDS011;23035;50.032;21.978;2024-02-21T03:21:11;6.85;;;3.97;;
37131;SDS011;23035;50.032;21.978;2024-02-21T03:26:17;9.48;;;3.80;;
37131;SDS011;23035;50.032;21.978;2024-02-21T03:31:21;8.73;;;4.10;;
37131;SDS011;23035;50.032;21.978;2024-02-21T03:36:32;12.15;;;4.68;;
37131;SDS011;23035;50.032;21.978;2024-02-21T03:41:38;8.52;;;4.40;;
37131;SDS011;23035;50.032;21.978;2024-02-21T03:46:42;15.23;;;5.93;;
37131;SDS011;23035;50.032;21.978;2024-02-21T03:51:46;15.63;;;6.25;;
37131;SDS011;23035;50.032;21.978;2024-02-21T03:56:52;10.20;;;4.38;;
37131;SDS011;23035;50.032;21.978;2024-02-21T04:01:56;9.98;;;4.18;;
37131;SDS011;23035;50.032;21.978;2024-02-21T04:07:00;8.32;;;3.60;;
37131;SDS011;23035;50.032;21.978;2024-02-21T04:12:10;9.55;;;3.72;;
37131;SDS011;23035;50.032;21.978;2024-02-21T04:17:14;7.50;;;3.58;;
37131;SDS011;23035;50.032;21.978;2024-02-21T04:22:18;8.10;;;3.92;;
37131;SDS011;23035;50.032;21.978;2024-02-21T04:27:23;14.00;;;4.72;;
37131;SDS011;23035;50.032;21.978;2024-02-21T04:32:28;15.65;;;5.90;;
37131;SDS011;23035;50.032;21.978;2024-02-21T04:37:32;10.35;;;4.00;;
37131;SDS011;23035;50.032;21.978;2024-02-21T04:42:37;7.43;;;3.10;;
37131;SDS011;23035;50.032;21.978;2024-02-21T04:47:42;11.55;;;3.40;;
37131;SDS011;23035;50.032;21.978;2024-02-21T04:52:47;7.40;;;3.45;;
37131;SDS011;23035;50.032;21.978;2024-02-21T04:57:52;10.52;;;4.57;;
37131;SDS011;23035;50.032;21.978;2024-02-21T05:02:57;6.47;;;3.55;;
37131;SDS011;23035;50.032;21.978;2024-02-21T05:08:01;12.25;;;4.65;;
37131;SDS011;23035;50.032;21.978;2024-02-21T05:13:07;8.03;;;3.57;;
37131;SDS011;23035;50.032;21.978;2024-02-21T05:18:11;9.45;;;4.55;;
37131;SDS011;23035;50.032;21.978;2024-02-21T05:23:16;9.32;;;4.03;;
37131;SDS011;23035;50.032;21.978;2024-02-21T05:28:21;8.85;;;3.63;;
37131;SDS011;23035;50.032;21.978;2024-02-21T05:33:25;11.27;;;4.50;;
37131;SDS011;23035;50.032;21.978;2024-02-21T05:38:30;15.90;;;5.97;;
37131;SDS011;23035;50.032;21.978;2024-02-21T05:43:35;14.65;;;5.57;;
37131;SDS011;23035;50.032;21.978;2024-02-21T05:48:39;17.50;;;7.80;;
37131;SDS011;23035;50.032;21.978;2024-02-21T05:53:44;21.08;;;7.63;;
37131;SDS011;23035;50.032;21.978;2024-02-21T05:58:49;10.52;;;4.20;;
37131;SDS011;23035;50.032;21.978;2024-02-21T06:03:53;11.63;;;4.15;;
37131;SDS011;23035;50.032;21.978;2024-02-21T06:08:57;12.27;;;4.55;;
37131;SDS011;23035;50.032;21.978;2024-02-21T06:14:04;10.97;;;4.07;;
37131;SDS011;23035;50.032;21.978;2024-02-21T06:19:08;9.18;;;4.43;;
37131;SDS011;23035;50.032;21.978;2024-02-21T06:24:12;11.13;;;3.70;;
37131;SDS011;23035;50.032;21.978;2024-02-21T06:29:17;9.73;;;4.18;;
37131;SDS011;23035;50.032;21.978;2024-02-21T06:34:21;16.85;;;5.47;;
37131;SDS011;23035;50.032;21.978;2024-02-21T06:39:26;16.73;;;5.47;;
37131;SDS011;23035;50.032;21.978;2024-02-21T06:44:33;12.60;;;5.10;;
37131;SDS011;23035;50.032;21.978;2024-02-21T06:49:47;9.80;;;4.90;;
37131;SDS011;23035;50.032;21.978;2024-02-21T06:54:52;18.77;;;5.55;;
37131;SDS011;23035;50.032;21.978;2024-02-21T06:59:58;11.60;;;5.38;;
37131;SDS011;23035;50.032;21.978;2024-02-21T07:05:03;13.55;;;5.57;;
37131;SDS011;23035;50.032;21.978;2024-02-21T07:10:08;15.52;;;5.70;;
37131;SDS011;23035;50.032;21.978;2024-02-21T07:15:15;14.80;;;5.90;;
37131;SDS011;23035;50.032;21.978;2024-02-21T07:20:20;15.93;;;6.65;;
37131;SDS011;23035;50.032;21.978;2024-02-21T07:25:24;17.40;;;6.90;;
37131;SDS011;23035;50.032;21.978;2024-02-21T07:30:30;16.42;;;6.60;;
37131;SDS011;23035;50.032;21.978;2024-02-21T07:35:35;11.75;;;6.20;;
37131;SDS011;23035;50.032;21.978;2024-02-21T07:40:40;17.73;;;6.97;;
37131;SDS011;23035;50.032;21.978;2024-02-21T07:45:47;23.30;;;8.00;;
37131;SDS011;23035;50.032;21.978;2024-02-21T07:50:51;17.65;;;8.07;;
37131;SDS011;23035;50.032;21.978;2024-02-21T07:55:58;23.13;;;8.18;;
37131;SDS011;23035;50.032;21.978;2024-02-21T08:01:05;20.95;;;7.07;;
37131;SDS011;23035;50.032;21.978;2024-02-21T08:06:11;24.52;;;5.88;;
37131;SDS011;23035;50.032;21.978;2024-02-21T08:11:18;15.90;;;5.22;;
37131;SDS011;23035;50.032;21.978;2024-02-21T08:16:24;17.80;;;5.70;;
37131;SDS011;23035;50.032;21.978;2024-02-21T08:21:30;25.13;;;6.90;;
37131;SDS011;23035;50.032;21.978;2024-02-21T08:26:35;19.48;;;5.25;;
37131;SDS011;23035;50.032;21.978;2024-02-21T08:31:45;13.88;;;5.10;;
37131;SDS011;23035;50.032;21.978;2024-02-21T08:36:50;22.70;;;8.13;;
37131;SDS011;23035;50.032;21.978;2024-02-21T08:41:54;19.55;;;5.40;;
37131;SDS011;23035;50.032;21.978;2024-02-21T08:47:02;27.05;;;6.75;;
37131;SDS011;23035;50.032;21.978;2024-02-21T08:52:08;21.92;;;6.43;;
37131;SDS011;23035;50.032;21.978;2024-02-21T08:57:12;20.85;;;5.82;;
37131;SDS011;23035;50.032;21.978;2024-02-21T09:07:24;18.48;;;4.88;;
37131;SDS011;23035;50.032;21.978;2024-02-21T09:12:28;15.60;;;5.13;;
37131;SDS011;23035;50.032;21.978;2024-02-21T09:17:34;24.52;;;5.32;;
37131;SDS011;23035;50.032;21.978;2024-02-21T09:22:39;15.27;;;5.45;;
37131;SDS011;23035;50.032;21.978;2024-02-21T09:27:44;16.13;;;4.73;;
37131;SDS011;23035;50.032;21.978;2024-02-21T09:32:50;15.97;;;4.67;;
37131;SDS011;23035;50.032;21.978;2024-02-21T09:37:56;19.25;;;5.55;;
37131;SDS011;23035;50.032;21.978;2024-02-21T09:43:02;12.60;;;4.95;;
37131;SDS011;23035;50.032;21.978;2024-02-21T09:48:19;12.27;;;4.70;;
37131;SDS011;23035;50.032;21.978;2024-02-21T09:53:38;12.90;;;4.47;;
37131;SDS011;23035;50.032;21.978;2024-02-21T09:58:50;11.90;;;4.32;;
37131;SDS011;23035;50.032;21.978;2024-02-21T10:03:56;12.27;;;4.30;;
37131;SDS011;23035;50.032;21.978;2024-02-21T10:09:01;11.30;;;4.30;;
37131;SDS011;23035;50.032;21.978;2024-02-21T10:14:05;15.60;;;4.28;;
37131;SDS011;23035;50.032;21.978;2024-02-21T10:19:19;11.80;;;4.97;;
37131;SDS011;23035;50.032;21.978;2024-02-21T10:24:26;15.52;;;4.38;;
37131;SDS011;23035;50.032;21.978;2024-02-21T10:29:31;11.75;;;3.58;;
37131;SDS011;23035;50.032;21.978;2024-02-21T10:34:37;10.98;;;3.40;;
37131;SDS011;23035;50.032;21.978;2024-02-21T10:39:43;10.75;;;3.50;;
37131;SDS011;23035;50.032;21.978;2024-02-21T10:44:48;9.52;;;3.00;;
37131;SDS011;23035;50.032;21.978;2024-02-21T10:49:57;13.80;;;4.05;;
37131;SDS011;23035;50.032;21.978;2024-02-21T10:55:08;11.82;;;3.60;;
37131;SDS011;23035;50.032;21.978;2024-02-21T11:00:17;9.25;;;3.15;;
37131;SDS011;23035;50.032;21.978;2024-02-21T11:05:23;16.75;;;4.22;;
37131;SDS011;23035;50.032;21.978;2024-02-21T11:10:28;13.27;;;4.50;;
37131;SDS011;23035;50.032;21.978;2024-02-21T11:15:32;12.25;;;4.57;;
37131;SDS011;23035;50.032;21.978;2024-02-21T11:20:38;9.95;;;3.50;;
37131;SDS011;23035;50.032;21.978;2024-02-21T11:25:43;8.05;;;2.95;;
37131;SDS011;23035;50.032;21.978;2024-02-21T11:30:47;12.27;;;3.83;;
37131;SDS011;23035;50.032;21.978;2024-02-21T11:35:55;12.80;;;3.67;;
37131;SDS011;23035;50.032;21.978;2024-02-21T11:46:03;9.65;;;3.40;;
37131;SDS011;23035;50.032;21.978;2024-02-21T11:51:10;11.98;;;3.50;;
37131;SDS011;23035;50.032;21.978;2024-02-21T11:56:14;8.18;;;3.10;;
37131;SDS011;23035;50.032;21.978;2024-02-21T12:01:18;8.38;;;3.47;;
37131;SDS011;23035;50.032;21.978;2024-02-21T12:06:24;14.77;;;4.05;;
37131;SDS011;23035;50.032;21.978;2024-02-21T12:11:28;16.48;;;4.00;;
37131;SDS011;23035;50.032;21.978;2024-02-21T12:16:32;14.07;;;5.20;;
37131;SDS011;23035;50.032;21.978;2024-02-21T12:21:45;16.67;;;4.70;;
37131;SDS011;23035;50.032;21.978;2024-02-21T12:26:53;18.02;;;4.60;;
37131;SDS011;23035;50.032;21.978;2024-02-21T12:31:58;18.48;;;3.88;;
37131;SDS011;23035;50.032;21.978;2024-02-21T12:37:04;12.15;;;4.07;;
37131;SDS011;23035;50.032;21.978;2024-02-21T12:42:09;9.63;;;3.90;;
37131;SDS011;23035;50.032;21.978;2024-02-21T12:47:14;7.00;;;3.20;;
37131;SDS011;23035;50.032;21.978;2024-02-21T12:52:20;8.80;;;3.20;;
37131;SDS011;23035;50.032;21.978;2024-02-21T12:57:25;11.43;;;3.75;;
37131;SDS011;23035;50.032;21.978;2024-02-21T13:02:31;9.93;;;3.30;;
37131;SDS011;23035;50.032;21.978;2024-02-21T13:07:37;7.72;;;3.03;;
37131;SDS011;23035;50.032;21.978;2024-02-21T13:17:45;8.00;;;3.20;;
37131;SDS011;23035;50.032;21.978;2024-02-21T13:22:51;6.60;;;3.00;;
37131;SDS011;23035;50.032;21.978;2024-02-21T13:27:55;12.20;;;4.13;;
37131;SDS011;23035;50.032;21.978;2024-02-21T13:33:00;7.65;;;3.58;;
37131;SDS011;23035;50.032;21.978;2024-02-21T13:43:14;10.70;;;4.80;;
37131;SDS011;23035;50.032;21.978;2024-02-21T13:48:18;7.95;;;3.15;;
37131;SDS011;23035;50.032;21.978;2024-02-21T13:53:24;11.07;;;2.60;;
37131;SDS011;23035;50.032;21.978;2024-02-21T13:58:30;6.65;;;3.17;;
37131;SDS011;23035;50.032;21.978;2024-02-21T14:03:34;9.65;;;3.75;;
37131;SDS011;23035;50.032;21.978;2024-02-21T14:08:40;17.10;;;4.60;;
37131;SDS011;23035;50.032;21.978;2024-02-21T14:13:44;11.10;;;4.00;;
37131;SDS011;23035;50.032;21.978;2024-02-21T14:18:49;12.65;;;4.00;;
37131;SDS011;23035;50.032;21.978;2024-02-21T14:23:55;15.75;;;3.60;;
37131;SDS011;23035;50.032;21.978;2024-02-21T14:28:59;11.40;;;3.92;;
37131;SDS011;23035;50.032;21.978;2024-02-21T14:34:03;17.77;;;4.72;;
37131;SDS011;23035;50.032;21.978;2024-02-21T14:39:09;11.00;;;4.15;;
37131;SDS011;23035;50.032;21.978;2024-02-21T14:44:13;12.80;;;5.28;;
37131;SDS011;23035;50.032;21.978;2024-02-21T14:49:18;22.98;;;4.72;;
37131;SDS011;23035;50.032;21.978;2024-02-21T14:54:25;18.10;;;4.88;;
37131;SDS011;23035;50.032;21.978;2024-02-21T14:59:30;13.60;;;4.80;;
37131;SDS011;23035;50.032;21.978;2024-02-21T15:04:36;21.05;;;5.65;;
37131;SDS011;23035;50.032;21.978;2024-02-21T15:09:42;16.15;;;5.88;;
37131;SDS011;23035;50.032;21.978;2024-02-21T15:14:49;16.70;;;5.63;;
37131;SDS011;23035;50.032;21.978;2024-02-21T15:19:54;16.75;;;7.00;;
37131;SDS011;23035;50.032;21.978;2024-02-21T15:25:00;17.38;;;7.20;;
37131;SDS011;23035;50.032;21.978;2024-02-21T15:30:05;24.77;;;10.02;;
37131;SDS011;23035;50.032;21.978;2024-02-21T15:35:10;19.30;;;8.55;;
37131;SDS011;23035;50.032;21.978;2024-02-21T15:40:17;21.52;;;9.52;;
37131;SDS011;23035;50.032;21.978;2024-02-21T15:45:24;21.85;;;9.77;;
37131;SDS011;23035;50.032;21.978;2024-02-21T15:50:32;26.88;;;11.05;;
37131;SDS011;23035;50.032;21.978;2024-02-21T15:55:41;34.80;;;12.77;;
37131;SDS011;23035;50.032;21.978;2024-02-21T16:00:46;37.85;;;17.08;;
37131;SDS011;23035;50.032;21.978;2024-02-21T16:05:50;36.85;;;16.95;;
37131;SDS011;23035;50.032;21.978;2024-02-21T16:11:01;35.95;;;15.52;;
37131;SDS011;23035;50.032;21.978;2024-02-21T16:16:07;34.55;;;15.13;;
37131;SDS011;23035;50.032;21.978;2024-02-21T16:21:12;32.27;;;15.30;;
37131;SDS011;23035;50.032;21.978;2024-02-21T16:26:19;34.97;;;17.45;;
37131;SDS011;23035;50.032;21.978;2024-02-21T16:31:23;42.28;;;17.52;;
37131;SDS011;23035;50.032;21.978;2024-02-21T16:36:27;43.83;;;20.27;;
37131;SDS011;23035;50.032;21.978;2024-02-21T16:41:34;45.22;;;20.95;;
37131;SDS011;23035;50.032;21.978;2024-02-21T16:46:39;32.40;;;16.52;;
37131;SDS011;23035;50.032;21.978;2024-02-21T16:51:43;38.33;;;17.80;;
37131;SDS011;23035;50.032;21.978;2024-02-21T16:56:49;31.60;;;16.23;;
37131;SDS011;23035;50.032;21.978;2024-02-21T17:01:53;38.92;;;17.85;;
37131;SDS011;23035;50.032;21.978;2024-02-21T17:06:57;52.38;;;21.45;;
37131;SDS011;23035;50.032;21.978;2024-02-21T17:12:03;44.78;;;21.45;;
37131;SDS011;23035;50.032;21.978;2024-02-21T17:17:11;67.60;;;24.60;;
37131;SDS011;23035;50.032;21.978;2024-02-21T17:22:15;58.63;;;25.02;;
37131;SDS011;23035;50.032;21.978;2024-02-21T17:27:22;48.43;;;21.13;;
37131;SDS011;23035;50.032;21.978;2024-02-21T17:32:26;56.75;;;21.48;;
37131;SDS011;23035;50.032;21.978;2024-02-21T17:37:30;49.22;;;20.38;;
37131;SDS011;23035;50.032;21.978;2024-02-21T17:42:38;51.92;;;20.58;;
37131;SDS011;23035;50.032;21.978;2024-02-21T17:47:43;47.47;;;18.58;;
37131;SDS011;23035;50.032;21.978;2024-02-21T17:52:47;41.63;;;20.40;;
37131;SDS011;23035;50.032;21.978;2024-02-21T17:57:53;41.80;;;18.00;;
37131;SDS011;23035;50.032;21.978;2024-02-21T18:02:57;39.05;;;18.38;;
37131;SDS011;23035;50.032;21.978;2024-02-21T18:08:03;40.55;;;16.42;;
37131;SDS011;23035;50.032;21.978;2024-02-21T18:13:09;36.40;;;14.60;;
37131;SDS011;23035;50.032;21.978;2024-02-21T18:18:13;30.58;;;12.05;;
37131;SDS011;23035;50.032;21.978;2024-02-21T18:23:18;31.33;;;12.98;;
37131;SDS011;23035;50.032;21.978;2024-02-21T18:28:27;35.63;;;14.30;;
37131;SDS011;23035;50.032;21.978;2024-02-21T18:33:36;41.40;;;17.77;;
37131;SDS011;23035;50.032;21.978;2024-02-21T18:38:47;38.78;;;17.95;;
37131;SDS011;23035;50.032;21.978;2024-02-21T18:43:53;28.73;;;13.38;;
37131;SDS011;23035;50.032;21.978;2024-02-21T18:49:03;34.03;;;14.50;;
37131;SDS011;23035;50.032;21.978;2024-02-21T18:54:11;26.60;;;11.80;;
37131;SDS011;23035;50.032;21.978;2024-02-21T18:59:17;26.25;;;11.10;;
37131;SDS011;23035;50.032;21.978;2024-02-21T19:09:33;22.65;;;8.57;;
37131;SDS011;23035;50.032;21.978;2024-02-21T19:14:38;21.35;;;8.65;;
37131;SDS011;23035;50.032;21.978;2024-02-21T19:19:43;18.05;;;6.80;;
37131;SDS011;23035;50.032;21.978;2024-02-21T19:24:50;15.00;;;6.47;;
37131;SDS011;23035;50.032;21.978;2024-02-21T19:29:58;17.67;;;6.18;;
37131;SDS011;23035;50.032;21.978;2024-02-21T19:35:02;24.60;;;8.25;;
37131;SDS011;23035;50.032;21.978;2024-02-21T19:40:08;18.00;;;7.68;;
37131;SDS011;23035;50.032;21.978;2024-02-21T19:45:14;24.73;;;8.63;;
37131;SDS011;23035;50.032;21.978;2024-02-21T19:50:19;20.00;;;7.53;;
37131;SDS011;23035;50.032;21.978;2024-02-21T20:00:31;14.15;;;6.18;;
37131;SDS011;23035;50.032;21.978;2024-02-21T20:05:35;16.33;;;6.22;;
37131;SDS011;23035;50.032;21.978;2024-02-21T20:11:03;15.40;;;6.93;;
37131;SDS011;23035;50.032;21.978;2024-02-21T20:16:10;17.63;;;7.78;;
37131;SDS011;23035;50.032;21.978;2024-02-21T20:21:15;14.15;;;6.28;;
37131;SDS011;23035;50.032;21.978;2024-02-21T20:26:19;17.05;;;7.05;;
37131;SDS011;23035;50.032;21.978;2024-02-21T20:31:31;20.98;;;9.07;;
37131;SDS011;23035;50.032;21.978;2024-02-21T20:36:35;20.83;;;9.80;;
37131;SDS011;23035;50.032;21.978;2024-02-21T20:41:39;21.38;;;9.25;;
37131;SDS011;23035;50.032;21.978;2024-02-21T20:46:45;24.00;;;9.77;;
37131;SDS011;23035;50.032;21.978;2024-02-21T20:51:49;23.73;;;10.48;;
37131;SDS011;23035;50.032;21.978;2024-02-21T20:56:54;17.80;;;7.93;;
37131;SDS011;23035;50.032;21.978;2024-02-21T21:02:02;18.35;;;8.75;;
37131;SDS011;23035;50.032;21.978;2024-02-21T21:07:07;19.48;;;8.13;;
37131;SDS011;23035;50.032;21.978;2024-02-21T21:12:11;17.40;;;7.07;;
37131;SDS011;23035;50.032;21.978;2024-02-21T21:17:16;15.35;;;6.88;;
37131;SDS011;23035;50.032;21.978;2024-02-21T21:22:21;13.45;;;6.45;;
37131;SDS011;23035;50.032;21.978;2024-02-21T21:27:25;14.20;;;6.32;;
37131;SDS011;23035;50.032;21.978;2024-02-21T21:32:31;12.20;;;5.80;;
37131;SDS011;23035;50.032;21.978;2024-02-21T21:37:35;12.30;;;5.88;;
37131;SDS011;23035;50.032;21.978;2024-02-21T21:42:39;11.07;;;6.22;;
37131;SDS011;23035;50.032;21.978;2024-02-21T21:47:45;14.30;;;6.65;;
37131;SDS011;23035;50.032;21.978;2024-02-21T21:52:51;19.60;;;7.70;;
37131;SDS011;23035;50.032;21.978;2024-02-21T21:57:55;13.30;;;7.03;;
37131;SDS011;23035;50.032;21.978;2024-02-21T22:03:01;15.88;;;7.75;;
37131;SDS011;23035;50.032;21.978;2024-02-21T22:08:05;18.55;;;8.43;;
37131;SDS011;23035;50.032;21.978;2024-02-21T22:13:10;15.27;;;7.53;;
37131;SDS011;23035;50.032;21.978;2024-02-21T22:18:16;19.98;;;7.78;;
37131;SDS011;23035;50.032;21.978;2024-02-21T22:23:20;15.32;;;7.22;;
37131;SDS011;23035;50.032;21.978;2024-02-21T22:28:24;14.40;;;7.50;;
37131;SDS011;23035;50.032;21.978;2024-02-21T22:33:31;15.80;;;7.43;;
37131;SDS011;23035;50.032;21.978;2024-02-21T22:38:36;14.00;;;7.50;;
37131;SDS011;23035;50.032;21.978;2024-02-21T22:43:42;12.88;;;6.97;;
37131;SDS011;23035;50.032;21.978;2024-02-21T22:48:49;12.43;;;6.90;;
37131;SDS011;23035;50.032;21.978;2024-02-21T22:53:54;16.13;;;7.70;;
37131;SDS011;23035;50.032;21.978;2024-02-21T22:58:58;16.70;;;7.63;;
37131;SDS011;23035;50.032;21.978;2024-02-21T23:04:14;13.00;;;7.55;;
37131;SDS011;23035;50.032;21.978;2024-02-21T23:09:19;12.45;;;6.85;;
37131;SDS011;23035;50.032;21.978;2024-02-21T23:14:23;13.20;;;7.50;;
37131;SDS011;23035;50.032;21.978;2024-02-21T23:19:28;14.07;;;7.57;;
37131;SDS011;23035;50.032;21.978;2024-02-21T23:24:33;15.02;;;7.55;;
37131;SDS011;23035;50.032;21.978;2024-02-21T23:29:38;12.98;;;7.47;;
37131;SDS011;23035;50.032;21.978;2024-02-21T23:34:44;13.32;;;7.78;;
37131;SDS011;23035;50.032;21.978;2024-02-21T23:44:52;14.15;;;7.45;;
37131;SDS011;23035;50.032;21.978;2024-02-21T23:49:59;13.77;;;7.63;;
37131;SDS011;23035;50.032;21.978;2024-02-21T23:55:03;14.13;;;7.90;;
